createdAt,value
2023-02-21T00:01:15.417Z,96.00
2023-02-21T00:04:02.186Z,95.71
2023-02-21T00:06:48.410Z,96.19
2023-02-21T00:09:36.269Z,96.03
2023-02-21T00:12:22.769Z,96.55
2023-02-21T00:15:08.885Z,96.74
2023-02-21T00:17:55.039Z,96.82
2023-02-21T00:20:41.132Z,96.74
2023-02-21T00:23:27.832Z,97.31
2023-02-21T00:26:15.418Z,97.08
2023-02-21T00:29:01.744Z,96.50
2023-02-21T00:31:48.003Z,96.76
2023-02-21T00:34:34.308Z,96.89
2023-02-21T00:37:20.789Z,96.89
2023-02-21T00:40:07.034Z,97.00
2023-02-21T00:42:54.813Z,96.45
2023-02-21T00:45:41.153Z,96.63
2023-02-21T00:48:27.126Z,96.65
2023-02-21T00:51:13.378Z,97.80
2023-02-21T00:54:00.266Z,97.03
2023-02-21T00:56:46.557Z,97.13
2023-02-21T00:59:34.267Z,96.67
2023-02-21T01:02:20.364Z,96.46
2023-02-21T01:05:06.947Z,96.83
2023-02-21T01:07:53.644Z,96.67
2023-02-21T01:10:39.709Z,96.75
2023-02-21T01:13:26.069Z,96.67
2023-02-21T01:16:13.944Z,97.32
2023-02-21T01:19:00.042Z,97.25
2023-02-21T01:21:46.474Z,97.27
2023-02-21T01:24:34.119Z,97.17
2023-02-21T01:27:20.743Z,97.31
2023-02-21T01:30:06.812Z,97.62
2023-02-21T01:32:54.692Z,97.89
2023-02-21T01:35:41.041Z,97.92
2023-02-21T01:38:27.214Z,97.82
2023-02-21T01:41:13.901Z,97.38
2023-02-21T01:44:16.411Z,97.52
2023-02-21T01:47:02.890Z,97.32
2023-02-21T01:49:52.005Z,97.83
2023-02-21T01:52:38.318Z,97.87
2023-02-21T01:55:25.395Z,97.16
2023-02-21T01:58:13.653Z,98.14
2023-02-21T02:01:00.214Z,98.08
2023-02-21T02:03:46.450Z,97.44
2023-02-21T02:06:36.370Z,97.99
2023-02-21T02:09:34.342Z,97.74
2023-02-21T02:12:25.601Z,97.75
2023-02-21T02:15:09.662Z,98.27
2023-02-21T02:17:51.764Z,97.97
2023-02-21T02:20:53.722Z,98.42
2023-02-21T02:23:46.588Z,98.45
2023-02-21T02:26:57.487Z,98.58
2023-02-21T02:29:52.343Z,98.88
2023-02-21T02:32:39.597Z,98.39
2023-02-21T02:35:11.369Z,98.78
2023-02-21T02:37:46.196Z,98.87
2023-02-21T02:40:23.768Z,98.45
2023-02-21T02:43:02.489Z,98.23
2023-02-21T02:45:36.801Z,98.86
2023-02-21T02:48:14.054Z,98.84
2023-02-21T02:50:49.097Z,99.12
2023-02-21T02:53:20.284Z,98.88
2023-02-21T02:55:53.174Z,99.11
2023-02-21T02:58:24.171Z,99.99
2023-02-21T03:01:29.145Z,99.89
2023-02-21T03:04:11.223Z,99.61
2023-02-21T03:06:51.078Z,99.90
2023-02-21T03:09:26.941Z,100.00
2023-02-21T03:12:03.627Z,100.00
2023-02-21T03:14:38.743Z,99.82
2023-02-21T03:17:13.431Z,99.67
2023-02-21T03:19:45.188Z,100.00
2023-02-21T03:22:17.358Z,100.00
2023-02-21T03:24:49.708Z,100.00
2023-02-21T03:27:21.091Z,100.00
2023-02-21T03:29:50.919Z,100.00
2023-02-21T03:32:25.085Z,100.00
2023-02-21T03:34:54.009Z,100.00
2023-02-21T03:37:31.809Z,100.00
2023-02-21T03:40:00.911Z,100.00
2023-02-21T03:42:29.342Z,100.00
2023-02-21T03:44:57.741Z,100.00
2023-02-21T03:47:26.311Z,100.00
2023-02-21T03:49:54.691Z,100.00
2023-02-21T03:52:24.540Z,100.00
2023-02-21T03:54:52.896Z,100.00
2023-02-21T03:57:21.184Z,100.00
2023-02-21T03:59:49.493Z,100.00
2023-02-21T04:02:19.095Z,99.88
2023-02-21T04:04:48.616Z,100.00
2023-02-21T04:07:18.050Z,99.75
2023-02-21T04:09:47.874Z,99.80
2023-02-21T04:12:16.390Z,99.57
2023-02-21T04:14:44.780Z,99.64
2023-02-21T04:17:13.381Z,99.80
2023-02-21T04:19:41.734Z,99.75
2023-02-21T04:22:10.095Z,99.40
2023-02-21T04:24:38.399Z,99.69
2023-02-21T04:27:08.440Z,100.00
2023-02-21T04:29:37.028Z,99.83
2023-02-21T04:32:05.648Z,100.00
2023-02-21T04:34:34.066Z,99.84
2023-02-21T04:37:02.397Z,100.00
2023-02-21T04:39:30.741Z,100.00
2023-02-21T04:41:59.267Z,100.00
2023-02-21T04:44:28.905Z,100.00
2023-02-21T04:46:57.338Z,100.00
2023-02-21T04:49:27.438Z,100.00
2023-02-21T04:51:56.228Z,100.00
2023-02-21T04:54:24.908Z,100.00
2023-02-21T04:56:53.305Z,100.00
2023-02-21T04:59:21.709Z,100.00
2023-02-21T05:01:51.452Z,100.00
2023-02-21T05:04:19.775Z,100.00
2023-02-21T05:06:48.331Z,100.00
2023-02-21T05:09:16.633Z,100.00
2023-02-21T05:11:45.001Z,100.00
2023-02-21T05:14:13.294Z,100.00
2023-02-21T05:16:41.671Z,100.00
2023-02-21T05:19:11.529Z,100.00
2023-02-21T05:21:39.835Z,100.00
2023-02-21T05:24:08.524Z,100.00
2023-02-21T05:26:38.940Z,100.00
2023-02-21T05:29:07.952Z,100.00
2023-02-21T05:31:38.952Z,100.00
2023-02-21T05:34:07.473Z,100.00
2023-02-21T05:36:37.215Z,100.00
2023-02-21T05:39:06.730Z,100.00
2023-02-21T05:41:36.093Z,100.00
2023-02-21T05:44:06.490Z,100.00
2023-02-21T05:46:36.225Z,100.00
2023-02-21T05:49:06.034Z,100.00
2023-02-21T05:51:38.166Z,100.00
2023-02-21T05:54:08.562Z,100.00
2023-02-21T05:56:40.783Z,100.00
2023-02-21T05:59:10.039Z,100.00
2023-02-21T06:01:39.323Z,100.00
2023-02-21T06:04:08.548Z,100.00
2023-02-21T06:06:38.902Z,100.00
2023-02-21T06:09:07.852Z,100.00
2023-02-21T06:11:38.524Z,100.00
2023-02-21T06:14:08.704Z,100.00
2023-02-21T06:16:38.483Z,100.00
2023-02-21T06:19:08.523Z,100.00
2023-02-21T06:21:38.476Z,100.00
2023-02-21T06:24:07.629Z,100.00
2023-02-21T06:26:37.184Z,100.00
2023-02-21T06:29:06.386Z,100.00
2023-02-21T06:31:36.311Z,100.00
2023-02-21T06:34:05.789Z,100.00
2023-02-21T06:36:35.626Z,100.00
2023-02-21T06:39:05.303Z,100.00
2023-02-21T06:41:33.800Z,100.00
2023-02-21T06:44:02.131Z,100.00
2023-02-21T06:46:31.874Z,100.00
2023-02-21T06:49:00.327Z,100.00
2023-02-21T06:51:30.179Z,100.00
2023-02-21T06:54:00.205Z,100.00
2023-02-21T06:56:30.151Z,100.00
2023-02-21T06:58:59.149Z,100.00
2023-02-21T07:01:29.275Z,100.00
2023-02-21T07:03:59.544Z,100.00
2023-02-21T07:06:29.833Z,100.00
2023-02-21T07:08:58.559Z,100.00
2023-02-21T07:11:27.032Z,100.00
2023-02-21T07:13:59.556Z,100.00
2023-02-21T07:16:28.646Z,100.00
2023-02-21T07:18:57.401Z,100.00
2023-02-21T07:21:27.761Z,100.00
2023-02-21T07:23:56.386Z,100.00
2023-02-21T07:26:25.321Z,100.00
2023-02-21T07:28:53.862Z,100.00
2023-02-21T07:31:24.051Z,100.00
2023-02-21T07:33:52.714Z,100.00
2023-02-21T07:36:22.576Z,100.00
2023-02-21T07:38:50.933Z,100.00
2023-02-21T07:41:19.489Z,100.00
2023-02-21T07:43:47.799Z,100.00
2023-02-21T07:46:18.051Z,100.00
2023-02-21T07:48:47.831Z,100.00
2023-02-21T07:51:16.540Z,100.00
2023-02-21T07:53:45.390Z,100.00
2023-02-21T07:56:13.883Z,100.00
2023-02-21T07:58:42.432Z,100.00
2023-02-21T08:01:10.718Z,100.00
2023-02-21T08:03:40.790Z,100.00
2023-02-21T08:06:11.510Z,100.00
2023-02-21T08:08:39.982Z,100.00
2023-02-21T08:11:08.730Z,100.00
2023-02-21T08:13:37.280Z,100.00
2023-02-21T08:16:06.101Z,100.00
2023-02-21T08:18:34.614Z,100.00
2023-02-21T08:21:03.003Z,100.00
2023-02-21T08:23:32.982Z,100.00
2023-02-21T08:26:01.313Z,100.00
2023-02-21T08:28:34.474Z,100.00
2023-02-21T08:31:02.874Z,100.00
2023-02-21T08:33:31.777Z,100.00
2023-02-21T08:36:00.095Z,100.00
2023-02-21T08:38:28.562Z,100.00
2023-02-21T08:40:58.408Z,100.00
2023-02-21T08:43:27.853Z,100.00
2023-02-21T08:45:56.268Z,100.00
2023-02-21T08:48:24.835Z,100.00
2023-02-21T08:50:53.801Z,100.00
2023-02-21T08:53:22.256Z,100.00
2023-02-21T08:55:50.657Z,100.00
2023-02-21T08:58:20.373Z,100.00
2023-02-21T09:00:49.323Z,100.00
2023-02-21T09:03:17.941Z,100.00
2023-02-21T09:05:46.603Z,100.00
2023-02-21T09:08:15.926Z,100.00
2023-02-21T09:10:47.856Z,100.00
2023-02-21T09:13:16.499Z,100.00
2023-02-21T09:15:46.474Z,100.00
2023-02-21T09:18:14.766Z,100.00
2023-02-21T09:20:43.174Z,100.00
2023-02-21T09:23:11.515Z,100.00
2023-02-21T09:25:39.953Z,100.00
2023-02-21T09:28:08.391Z,100.00
2023-02-21T09:30:36.724Z,100.00
2023-02-21T09:33:06.389Z,100.00
2023-02-21T09:35:34.802Z,100.00
2023-02-21T09:38:03.945Z,100.00
2023-02-21T09:40:41.769Z,100.00
2023-02-21T09:43:15.732Z,100.00
2023-02-21T09:45:45.126Z,100.00
2023-02-21T09:48:18.297Z,100.00
2023-02-21T09:50:50.518Z,100.00
2023-02-21T09:53:23.511Z,100.00
2023-02-21T09:55:55.017Z,100.00
2023-02-21T09:58:23.596Z,100.00
2023-02-21T10:00:51.923Z,100.00
2023-02-21T10:03:45.683Z,100.00
2023-02-21T10:06:28.500Z,100.00
2023-02-21T10:09:04.019Z,100.00
2023-02-21T10:11:42.612Z,100.00
2023-02-21T10:14:20.635Z,100.00
2023-02-21T10:16:55.923Z,100.00
2023-02-21T10:19:32.701Z,100.00
2023-02-21T10:22:04.663Z,100.00
2023-02-21T10:24:34.537Z,100.00
2023-02-21T10:27:06.638Z,100.00
2023-02-21T10:29:41.604Z,100.00
2023-02-21T10:32:10.402Z,100.00
2023-02-21T10:34:46.296Z,100.00
2023-02-21T10:37:39.141Z,100.00
2023-02-21T10:40:23.960Z,100.00
2023-02-21T10:42:57.756Z,100.00
2023-02-21T10:45:33.922Z,100.00
2023-02-21T10:48:06.371Z,100.00
2023-02-21T10:51:05.943Z,100.00
2023-02-21T10:53:36.656Z,100.00
2023-02-21T10:56:28.006Z,100.00
2023-02-21T10:59:00.591Z,100.00
2023-02-21T11:01:36.788Z,100.00
2023-02-21T11:04:08.271Z,100.00
2023-02-21T11:06:40.918Z,100.00
2023-02-21T11:09:35.315Z,100.00
2023-02-21T11:12:07.024Z,100.00
2023-02-21T11:14:36.031Z,100.00
2023-02-21T11:17:17.094Z,100.00
2023-02-21T11:19:57.198Z,100.00
2023-02-21T11:22:37.066Z,99.84
2023-02-21T11:25:09.386Z,98.93
2023-02-21T11:27:38.751Z,99.08
2023-02-21T11:30:17.112Z,99.88
2023-02-21T11:32:50.258Z,99.47
2023-02-21T11:35:25.587Z,99.71
2023-02-21T11:37:58.822Z,100.00
2023-02-21T11:40:32.633Z,100.00
2023-02-21T11:43:25.347Z,100.00
2023-02-21T11:46:06.441Z,99.56
2023-02-21T11:48:43.074Z,99.93
2023-02-21T11:51:25.334Z,99.67
2023-02-21T11:53:55.484Z,99.44
2023-02-21T11:56:35.284Z,98.58
2023-02-21T11:59:13.507Z,98.66
2023-02-21T12:01:52.424Z,98.94
2023-02-21T12:04:34.846Z,98.34
2023-02-21T12:07:12.500Z,98.04
2023-02-21T12:09:48.156Z,97.67
2023-02-21T12:12:32.084Z,97.69
2023-02-21T12:15:22.543Z,98.46
2023-02-21T12:18:28.171Z,99.06
2023-02-21T12:21:08.762Z,98.09
2023-02-21T12:23:49.007Z,97.96
2023-02-21T12:26:33.199Z,98.75
2023-02-21T12:29:16.678Z,98.15
2023-02-21T12:31:56.539Z,97.90
2023-02-21T12:34:41.157Z,97.53
2023-02-21T12:37:29.389Z,98.17
2023-02-21T12:40:10.917Z,98.04
2023-02-21T12:42:57.851Z,97.62
2023-02-21T12:45:43.355Z,97.43
2023-02-21T12:48:18.820Z,96.65
2023-02-21T12:50:52.754Z,96.29
2023-02-21T12:53:26.120Z,95.56
2023-02-21T12:56:03.746Z,95.44
2023-02-21T12:58:38.347Z,95.09
2023-02-21T13:01:21.257Z,94.70
2023-02-21T13:03:58.307Z,93.88
2023-02-21T13:06:31.735Z,93.83
2023-02-21T13:09:13.914Z,92.99
2023-02-21T13:11:47.339Z,92.55
2023-02-21T13:14:19.322Z,91.78
2023-02-21T13:16:47.956Z,91.52
2023-02-21T13:19:17.462Z,91.34
2023-02-21T13:21:56.281Z,91.36
2023-02-21T13:24:37.344Z,90.75
2023-02-21T13:27:34.094Z,91.42
2023-02-21T13:30:13.562Z,91.34
2023-02-21T13:32:52.432Z,91.17
2023-02-21T13:35:26.942Z,91.19
2023-02-21T13:37:56.664Z,91.11
2023-02-21T13:40:32.513Z,90.61
2023-02-21T13:43:05.128Z,90.56
2023-02-21T13:45:35.000Z,90.35
2023-02-21T13:48:30.495Z,89.54
2023-02-21T13:51:00.189Z,88.42
2023-02-21T13:53:35.378Z,88.65
2023-02-21T13:56:18.769Z,89.53
2023-02-21T13:58:48.494Z,90.07
2023-02-21T14:01:25.117Z,89.48
2023-02-21T14:03:57.962Z,89.81
2023-02-21T14:06:35.909Z,90.26
2023-02-21T14:09:14.467Z,90.36
2023-02-21T14:11:48.120Z,90.01
2023-02-21T14:14:27.847Z,89.87
2023-02-21T14:17:04.230Z,89.74
2023-02-21T14:19:39.795Z,90.29
2023-02-21T14:22:15.885Z,90.16
2023-02-21T14:24:49.690Z,90.06
2023-02-21T14:27:39.132Z,90.44
2023-02-21T14:30:28.700Z,89.95
2023-02-21T14:33:22.063Z,89.35
2023-02-21T14:36:01.398Z,89.34
2023-02-21T14:38:36.455Z,89.62
2023-02-21T14:41:31.103Z,89.18
2023-02-21T14:44:14.223Z,89.08
2023-02-21T14:47:00.897Z,88.78
2023-02-21T14:49:47.957Z,88.56
2023-02-21T14:52:35.264Z,88.19
2023-02-21T14:55:38.712Z,87.66
2023-02-21T14:58:41.923Z,87.46
2023-02-21T15:01:17.311Z,87.34
2023-02-21T15:03:49.857Z,87.72
2023-02-21T15:06:23.586Z,87.68
2023-02-21T15:08:54.964Z,87.31
2023-02-21T15:11:27.593Z,87.03
2023-02-21T15:14:22.609Z,86.33
2023-02-21T15:16:55.057Z,86.40
2023-02-21T15:19:28.822Z,85.69
2023-02-21T15:22:23.517Z,85.11
2023-02-21T15:25:17.809Z,87.02
2023-02-21T15:27:58.502Z,87.29
2023-02-21T15:30:29.230Z,87.71
2023-02-21T15:33:00.738Z,87.95
2023-02-21T15:35:34.545Z,88.39
2023-02-21T15:38:08.918Z,88.62
2023-02-21T15:40:38.878Z,88.67
2023-02-21T15:43:08.851Z,89.11
2023-02-21T15:45:46.269Z,89.33
2023-02-21T15:48:15.401Z,89.57
2023-02-21T15:50:46.726Z,88.89
2023-02-21T15:53:20.163Z,88.91
2023-02-21T15:55:50.217Z,89.29
2023-02-21T15:58:24.924Z,89.22
2023-02-21T16:01:10.543Z,88.79
2023-02-21T16:03:40.746Z,89.15
2023-02-21T16:06:23.535Z,88.83
2023-02-21T16:08:59.667Z,89.73
2023-02-21T16:11:41.075Z,90.10
2023-02-21T16:14:18.542Z,89.90
2023-02-21T16:16:53.583Z,90.38
2023-02-21T16:19:24.180Z,90.62
2023-02-21T16:22:14.989Z,90.99
2023-02-21T16:24:45.193Z,90.94
2023-02-21T16:27:16.659Z,90.83
2023-02-21T16:29:45.188Z,90.99
2023-02-21T16:32:19.482Z,90.73
2023-02-21T16:34:48.956Z,91.21
2023-02-21T16:37:17.462Z,91.16
2023-02-21T16:39:47.553Z,91.61
2023-02-21T16:42:16.523Z,91.23
2023-02-21T16:44:45.102Z,91.37
2023-02-21T16:47:15.109Z,91.84
2023-02-21T16:49:43.963Z,92.20
2023-02-21T16:52:15.304Z,92.31
2023-02-21T16:54:44.177Z,92.46
2023-02-21T16:57:13.881Z,92.28
2023-02-21T16:59:42.346Z,92.34
2023-02-21T17:02:14.690Z,91.89
2023-02-21T17:04:43.324Z,92.61
2023-02-21T17:07:11.824Z,92.94
2023-02-21T17:09:40.908Z,93.03
2023-02-21T17:12:09.762Z,93.45
2023-02-21T17:14:39.496Z,93.52
2023-02-21T17:17:08.079Z,94.08
2023-02-21T17:19:36.480Z,94.04
2023-02-21T17:22:04.891Z,93.77
2023-02-21T17:24:41.248Z,94.07
2023-02-21T17:27:21.952Z,94.49
2023-02-21T17:29:56.449Z,94.72
2023-02-21T17:32:27.320Z,94.22
2023-02-21T17:34:56.305Z,93.40
2023-02-21T17:37:28.231Z,93.56
2023-02-21T17:39:59.880Z,93.97
2023-02-21T17:42:38.981Z,94.28
2023-02-21T17:45:19.737Z,94.30
2023-02-21T17:47:53.519Z,94.40
2023-02-21T17:50:25.566Z,94.16
2023-02-21T17:52:53.994Z,93.89
2023-02-21T17:55:25.808Z,94.19
2023-02-21T17:57:54.429Z,94.63
2023-02-21T18:00:26.650Z,94.67
2023-02-21T18:02:56.605Z,94.51
2023-02-21T18:05:24.942Z,94.11
2023-02-21T18:07:54.693Z,94.47
2023-02-21T18:10:25.390Z,94.38
2023-02-21T18:12:54.546Z,94.78
2023-02-21T18:15:28.883Z,94.88
2023-02-21T18:17:59.081Z,95.03
2023-02-21T18:20:27.449Z,94.92
2023-02-21T18:22:55.947Z,95.02
2023-02-21T18:25:24.504Z,94.95
2023-02-21T18:27:53.058Z,95.33
2023-02-21T18:30:22.441Z,95.21
2023-02-21T18:32:52.269Z,95.45
2023-02-21T18:35:29.235Z,95.17
2023-02-21T18:37:57.838Z,94.85
2023-02-21T18:40:34.448Z,94.76
2023-02-21T18:43:06.068Z,94.73
2023-02-21T18:45:35.154Z,94.54
2023-02-21T18:48:05.258Z,95.13
2023-02-21T18:50:33.752Z,94.91
2023-02-21T18:53:03.958Z,95.08
2023-02-21T18:55:32.490Z,94.99
2023-02-21T18:58:01.605Z,95.24
2023-02-21T19:00:33.633Z,95.67
2023-02-21T19:03:03.645Z,96.28
2023-02-21T19:05:34.849Z,96.17
2023-02-21T19:08:03.693Z,96.12
2023-02-21T19:10:33.049Z,96.12
2023-02-21T19:13:02.060Z,96.19
2023-02-21T19:15:31.539Z,96.44
2023-02-21T19:18:01.044Z,95.91
2023-02-21T19:20:29.719Z,96.50
2023-02-21T19:22:59.551Z,96.90
2023-02-21T19:25:28.193Z,96.91
2023-02-21T19:28:00.422Z,96.52
2023-02-21T19:30:33.701Z,96.77
2023-02-21T19:33:03.657Z,96.92
2023-02-21T19:35:33.890Z,97.03
2023-02-21T19:38:05.769Z,97.11
2023-02-21T19:40:35.860Z,96.60
2023-02-21T19:43:06.287Z,96.88
2023-02-21T19:45:34.830Z,96.91
2023-02-21T19:48:03.358Z,97.59
2023-02-21T19:50:31.883Z,97.83
2023-02-21T19:53:00.909Z,97.96
2023-02-21T19:55:31.799Z,98.40
2023-02-21T19:58:06.297Z,98.73
2023-02-21T20:00:35.366Z,98.93
2023-02-21T20:03:03.969Z,98.79
2023-02-21T20:05:32.485Z,98.92
2023-02-21T20:08:01.069Z,98.92
2023-02-21T20:10:31.850Z,99.54
2023-02-21T20:13:02.512Z,99.87
2023-02-21T20:15:32.093Z,99.71
2023-02-21T20:18:01.919Z,99.44
2023-02-21T20:20:31.144Z,99.71
2023-02-21T20:23:04.265Z,99.62
2023-02-21T20:25:36.224Z,99.95
2023-02-21T20:28:07.133Z,100.00
2023-02-21T20:30:36.108Z,99.78
2023-02-21T20:33:07.981Z,100.00
2023-02-21T20:35:36.945Z,99.85
2023-02-21T20:38:05.994Z,100.00
2023-02-21T20:40:36.175Z,100.00
2023-02-21T20:43:04.678Z,100.00
2023-02-21T20:45:33.449Z,100.00
2023-02-21T20:48:01.872Z,100.00
2023-02-21T20:50:30.495Z,100.00
2023-02-21T20:52:58.858Z,100.00
2023-02-21T20:55:27.631Z,100.00
2023-02-21T20:57:57.867Z,100.00
2023-02-21T21:00:30.376Z,100.00
2023-02-21T21:02:59.100Z,99.62
2023-02-21T21:05:27.574Z,99.24
2023-02-21T21:07:57.431Z,98.81
2023-02-21T21:10:26.239Z,98.83
2023-02-21T21:12:54.971Z,98.47
2023-02-21T21:15:25.769Z,98.35
2023-02-21T21:17:54.500Z,98.73
2023-02-21T21:20:26.941Z,98.32
2023-02-21T21:22:55.727Z,98.84
2023-02-21T21:25:24.125Z,98.63
2023-02-21T21:27:52.687Z,98.18
2023-02-21T21:30:23.322Z,98.57
2023-02-21T21:32:53.238Z,98.21
2023-02-21T21:35:22.487Z,97.03
2023-02-21T21:37:50.937Z,96.43
2023-02-21T21:40:24.023Z,97.39
2023-02-21T21:42:53.732Z,97.77
2023-02-21T21:45:25.198Z,97.10
2023-02-21T21:47:58.892Z,97.16
2023-02-21T21:50:28.290Z,96.83
2023-02-21T21:52:58.868Z,97.09
2023-02-21T21:55:29.387Z,96.10
2023-02-21T21:57:59.126Z,96.06
2023-02-21T22:00:29.301Z,95.93
2023-02-21T22:03:02.030Z,95.89
2023-02-21T22:05:32.128Z,95.78
2023-02-21T22:08:00.998Z,95.51
2023-02-21T22:10:30.108Z,95.08
2023-02-21T22:13:00.411Z,94.54
2023-02-21T22:15:30.586Z,94.63
2023-02-21T22:18:03.949Z,94.17
2023-02-21T22:20:32.543Z,94.11
2023-02-21T22:23:00.882Z,94.06
2023-02-21T22:25:30.820Z,94.56
2023-02-21T22:28:03.699Z,94.24
2023-02-21T22:30:33.250Z,93.83
2023-02-21T22:33:03.598Z,94.11
2023-02-21T22:35:32.215Z,93.99
2023-02-21T22:38:02.832Z,93.21
2023-02-21T22:40:35.590Z,93.28
2023-02-21T22:43:09.008Z,93.18
2023-02-21T22:45:39.174Z,93.59
2023-02-21T22:48:10.095Z,92.86
2023-02-21T22:50:39.531Z,92.70
2023-02-21T22:53:12.951Z,92.78
2023-02-21T22:55:41.447Z,93.10
2023-02-21T22:58:10.429Z,92.98
2023-02-21T23:00:39.413Z,93.33
2023-02-21T23:03:13.584Z,93.97
2023-02-21T23:05:44.797Z,94.07
2023-02-21T23:08:14.446Z,93.96
2023-02-21T23:10:43.155Z,93.85
2023-02-21T23:13:14.967Z,94.15
2023-02-21T23:15:43.801Z,94.35
2023-02-21T23:18:20.247Z,94.61
2023-02-21T23:20:52.392Z,94.22
2023-02-21T23:23:21.663Z,94.17
2023-02-21T23:25:50.539Z,94.19
2023-02-21T23:28:19.134Z,94.21
2023-02-21T23:30:49.673Z,94.68
2023-02-21T23:33:23.782Z,95.13
2023-02-21T23:35:54.416Z,94.44
2023-02-21T23:38:28.099Z,94.04
2023-02-21T23:40:59.235Z,94.68
2023-02-21T23:43:29.880Z,94.33
2023-02-21T23:45:59.790Z,95.47
2023-02-21T23:48:32.561Z,95.69
2023-02-21T23:51:01.231Z,95.90
2023-02-21T23:53:31.784Z,96.60
2023-02-21T23:56:00.938Z,97.73
2023-02-21T23:58:32.363Z,97.33
